Time;durP1;ratioP1;P1;durP2;ratioP2;P2;SDS_P1;SDS_P2;PMS_P1;PMS_P2;Temp;Humidity;BMP_temperature;BMP_pressure;BME280_temperature;BME280_humidity;BME280_pressure;Samples;Min_cycle;Max_cycle;Signal;HPM_P1;HPM_P2
2021/12/24 00:00:23;;;;;;;6.25;3.80;;;;;;;;;;5075191;28;20031;-72
2021/12/24 00:02:49;;;;;;;5.32;3.97;;;;;;;;;;5062774;28;20443;-72
2021/12/24 00:05:16;;;;;;;6.18;4.20;;;;;;;;;;5067404;28;20016;-73
2021/12/24 00:07:42;;;;;;;6.50;4.25;;;;;;;;;;5073565;28;20056;-72
2021/12/24 00:10:10;;;;;;;5.75;4.25;;;;;;;;;;5066274;28;20494;-73
2021/12/24 00:12:40;;;;;;;6.28;4.15;;;;;;;;;;5066317;28;20115;-72
2021/12/24 00:15:22;;;;;;;6.45;4.43;;;;;;;;;;5069052;28;20036;-73
2021/12/24 00:17:48;;;;;;;5.63;4.10;;;;;;;;;;5073226;28;20021;-73
2021/12/24 00:36:30;;;;;;;3.60;3.03;;;;;;;;;;5063383;28;20065;-72
2021/12/24 00:38:57;;;;;;;4.35;3.42;;;;;;;;;;5071374;28;20586;-72
2021/12/24 00:41:24;;;;;;;4.38;3.58;;;;;;;;;;5071246;28;20029;-72
2021/12/24 00:43:50;;;;;;;5.13;3.72;;;;;;;;;;5076043;28;20032;-72
2021/12/24 00:46:17;;;;;;;5.55;3.65;;;;;;;;;;5066291;28;20097;-72
2021/12/24 00:48:44;;;;;;;5.85;3.38;;;;;;;;;;5064931;28;20625;-72
2021/12/24 00:51:30;;;;;;;5.85;3.72;;;;;;;;;;5067101;28;20058;-73
2021/12/24 00:56:41;;;;;;;6.10;3.20;;;;;;;;;;5077161;28;20526;-73
2021/12/24 00:59:07;;;;;;;5.90;3.50;;;;;;;;;;5074633;28;20040;-73
2021/12/24 01:01:33;;;;;;;5.00;3.35;;;;;;;;;;5066121;28;20580;-72
2021/12/24 01:03:59;;;;;;;4.07;3.47;;;;;;;;;;5067057;28;20024;-73
2021/12/24 01:06:26;;;;;;;6.53;3.50;;;;;;;;;;5069461;28;20023;-72
2021/12/24 01:08:52;;;;;;;4.25;3.33;;;;;;;;;;5070820;28;20162;-73
2021/12/24 01:11:19;;;;;;;3.90;3.40;;;;;;;;;;5067953;28;20056;-72
2021/12/24 01:13:45;;;;;;;7.70;3.95;;;;;;;;;;5065567;28;20105;-73
2021/12/24 01:17:04;;;;;;;4.25;2.75;;;;;;;;;;5076630;28;20534;-73
2021/12/24 01:19:10;;;;;;;5.35;3.33;;;;;;;;;;5065227;28;20064;-75
2021/12/24 01:24:14;;;;;;;3.75;2.83;;;;;;;;;;5061321;28;20039;-72
2021/12/24 01:27:53;;;;;;;4.47;3.45;;;;;;;;;;5063181;28;20024;-73
2021/12/24 01:43:01;;;;;;;4.60;3.13;;;;;;;;;;5063592;28;20843;-72
2021/12/24 01:45:28;;;;;;;6.43;3.35;;;;;;;;;;5063154;28;20816;-72
2021/12/24 01:47:58;;;;;;;4.63;3.15;;;;;;;;;;5060661;28;20025;-72
2021/12/24 01:50:26;;;;;;;4.50;3.60;;;;;;;;;;5066181;28;20028;-72
2021/12/24 01:52:54;;;;;;;4.38;3.35;;;;;;;;;;5066690;28;20028;-72
2021/12/24 01:55:20;;;;;;;4.50;3.22;;;;;;;;;;5072279;28;20582;-73
2021/12/24 01:57:46;;;;;;;4.45;3.60;;;;;;;;;;5072443;28;20074;-72
2021/12/24 02:00:15;;;;;;;4.20;3.50;;;;;;;;;;5074727;28;20517;-72
2021/12/24 02:02:41;;;;;;;6.10;3.15;;;;;;;;;;5073133;28;20033;-72
2021/12/24 02:05:07;;;;;;;3.47;3.15;;;;;;;;;;5071385;28;20043;-72
2021/12/24 02:07:34;;;;;;;3.97;2.90;;;;;;;;;;5074332;28;20475;-72
2021/12/24 02:10:00;;;;;;;5.05;3.45;;;;;;;;;;5074075;28;20056;-72
2021/12/24 02:12:27;;;;;;;5.25;3.20;;;;;;;;;;5071199;28;20087;-72
2021/12/24 02:14:57;;;;;;;4.85;3.65;;;;;;;;;;5074206;28;20528;-72
2021/12/24 02:17:42;;;;;;;5.20;3.38;;;;;;;;;;5066683;28;20029;-72
2021/12/24 02:28:47;;;;;;;4.50;3.53;;;;;;;;;;5075019;28;20579;-72
2021/12/24 02:31:16;;;;;;;5.13;3.42;;;;;;;;;;5069027;28;20123;-72
2021/12/24 02:33:42;;;;;;;4.57;3.60;;;;;;;;;;5072216;28;20032;-73
2021/12/24 02:36:09;;;;;;;4.25;3.03;;;;;;;;;;5069604;28;20135;-72
2021/12/24 02:38:35;;;;;;;4.30;3.42;;;;;;;;;;5071223;28;20428;-72
2021/12/24 02:41:02;;;;;;;3.65;3.10;;;;;;;;;;5071601;28;20527;-72
2021/12/24 02:43:29;;;;;;;5.22;3.20;;;;;;;;;;5081290;28;20073;-72
2021/12/24 02:45:59;;;;;;;4.13;3.35;;;;;;;;;;5070232;28;20055;-72
2021/12/24 02:49:13;;;;;;;3.78;2.67;;;;;;;;;;5069925;28;20054;-72
2021/12/24 02:54:00;;;;;;;3.85;3.33;;;;;;;;;;5072034;28;20093;-73
2021/12/24 02:56:29;;;;;;;4.15;2.70;;;;;;;;;;5073804;28;20408;-72
2021/12/24 02:58:56;;;;;;;4.20;2.92;;;;;;;;;;5074478;28;20497;-72
2021/12/24 03:01:24;;;;;;;4.97;3.90;;;;;;;;;;5077485;28;20054;-72
2021/12/24 03:03:51;;;;;;;4.38;2.90;;;;;;;;;;5069819;28;20472;-72
2021/12/24 03:06:22;;;;;;;3.63;3.05;;;;;;;;;;5069364;28;20037;-72
2021/12/24 03:08:48;;;;;;;5.20;3.08;;;;;;;;;;5068714;28;20489;-72
2021/12/24 03:11:14;;;;;;;4.70;3.10;;;;;;;;;;5064258;28;20040;-73
2021/12/24 03:13:41;;;;;;;3.63;3.20;;;;;;;;;;5070143;28;20056;-72
2021/12/24 03:16:08;;;;;;;3.40;3.05;;;;;;;;;;5071066;28;20132;-72
2021/12/24 03:18:36;;;;;;;3.45;2.80;;;;;;;;;;5071603;28;20464;-72
2021/12/24 03:21:08;;;;;;;3.13;2.70;;;;;;;;;;5069503;28;20032;-72
2021/12/24 03:23:44;;;;;;;3.70;2.70;;;;;;;;;;5066372;28;20103;-72
2021/12/24 03:26:12;;;;;;;4.57;2.85;;;;;;;;;;5065977;28;21460;-72
2021/12/24 03:28:39;;;;;;;3.47;2.80;;;;;;;;;;5067256;28;20024;-73
2021/12/24 03:31:05;;;;;;;3.67;2.60;;;;;;;;;;5065612;28;20028;-72
2021/12/24 03:33:33;;;;;;;5.45;3.22;;;;;;;;;;5071478;28;20056;-72
2021/12/24 03:36:00;;;;;;;5.90;2.90;;;;;;;;;;5071159;28;20036;-72
2021/12/24 03:38:26;;;;;;;3.63;3.15;;;;;;;;;;5066016;28;20531;-72
2021/12/24 03:40:53;;;;;;;5.55;3.10;;;;;;;;;;5064381;28;20032;-72
2021/12/24 03:43:19;;;;;;;5.35;2.95;;;;;;;;;;5067960;28;20547;-72
2021/12/24 03:45:57;;;;;;;4.38;3.65;;;;;;;;;;5070349;28;20048;-72
2021/12/24 03:48:38;;;;;;;3.13;2.42;;;;;;;;;;5064335;28;20047;-72
2021/12/24 03:56:35;;;;;;;3.80;2.42;;;;;;;;;;5068427;28;20046;-72
2021/12/24 03:59:04;;;;;;;4.05;2.60;;;;;;;;;;5069337;28;20067;-73
2021/12/24 04:01:30;;;;;;;4.05;2.90;;;;;;;;;;5065679;28;20028;-72
2021/12/24 04:03:56;;;;;;;4.63;2.60;;;;;;;;;;5062291;28;20032;-72
2021/12/24 04:06:22;;;;;;;6.53;3.22;;;;;;;;;;5074921;28;20529;-72
2021/12/24 04:08:48;;;;;;;3.45;2.60;;;;;;;;;;5063421;28;20582;-72
2021/12/24 04:11:15;;;;;;;2.80;2.20;;;;;;;;;;5061649;28;20021;-72
2021/12/24 04:13:41;;;;;;;3.30;2.60;;;;;;;;;;5069654;28;20032;-73
2021/12/24 04:16:08;;;;;;;5.45;3.28;;;;;;;;;;5063581;28;20098;-73
2021/12/24 04:18:42;;;;;;;3.58;2.50;;;;;;;;;;5072151;28;20025;-72
2021/12/24 04:26:38;;;;;;;3.30;2.70;;;;;;;;;;5061192;28;20082;-73
2021/12/24 04:29:04;;;;;;;4.22;3.20;;;;;;;;;;5068112;28;20028;-73
2021/12/24 04:31:41;;;;;;;3.25;2.80;;;;;;;;;;5079189;28;20039;-73
2021/12/24 04:34:07;;;;;;;4.00;3.20;;;;;;;;;;5063049;28;20021;-73
2021/12/24 04:36:50;;;;;;;3.17;2.88;;;;;;;;;;5069268;28;20127;-72
2021/12/24 05:01:13;;;;;;;4.53;2.83;;;;;;;;;;5063572;28;20067;-73
2021/12/24 05:03:45;;;;;;;3.78;2.50;;;;;;;;;;5063992;28;20092;-73
2021/12/24 05:06:28;;;;;;;3.58;2.20;;;;;;;;;;5072565;28;20064;-72
2021/12/24 05:08:58;;;;;;;4.28;2.60;;;;;;;;;;5059148;28;20040;-73
2021/12/24 05:11:24;;;;;;;2.97;2.53;;;;;;;;;;5068566;28;20040;-73
2021/12/24 05:13:52;;;;;;;3.22;2.20;;;;;;;;;;5071571;28;20085;-73
2021/12/24 05:21:33;;;;;;;3.30;2.38;;;;;;;;;;5060500;28;20036;-72
2021/12/24 05:24:00;;;;;;;6.88;2.83;;;;;;;;;;5064882;28;20032;-73
2021/12/24 05:26:26;;;;;;;3.85;2.33;;;;;;;;;;5063218;28;20036;-73
2021/12/24 05:28:52;;;;;;;5.28;2.70;;;;;;;;;;5066536;28;20078;-72
2021/12/24 05:31:20;;;;;;;3.83;2.30;;;;;;;;;;5069696;28;20500;-72
2021/12/24 05:33:46;;;;;;;4.88;3.00;;;;;;;;;;5082437;28;20036;-73
2021/12/24 05:36:12;;;;;;;4.85;2.72;;;;;;;;;;5074088;28;20036;-72
2021/12/24 05:38:38;;;;;;;4.70;2.85;;;;;;;;;;5067274;28;20028;-72
2021/12/24 05:41:04;;;;;;;4.30;2.80;;;;;;;;;;5072797;28;20103;-72
2021/12/24 05:43:31;;;;;;;3.90;2.78;;;;;;;;;;5066856;28;20055;-72
2021/12/24 05:45:57;;;;;;;3.97;2.63;;;;;;;;;;5070567;28;20082;-72
2021/12/24 05:48:23;;;;;;;3.03;2.70;;;;;;;;;;5066570;28;20025;-72
2021/12/24 05:50:49;;;;;;;4.85;2.58;;;;;;;;;;5065989;28;20110;-73
2021/12/24 05:53:15;;;;;;;5.15;2.70;;;;;;;;;;5073938;28;20132;-73
2021/12/24 05:55:42;;;;;;;6.03;2.70;;;;;;;;;;5066002;28;20037;-73
2021/12/24 05:58:08;;;;;;;6.55;2.60;;;;;;;;;;5066541;28;20032;-73
2021/12/24 06:00:36;;;;;;;3.03;2.10;;;;;;;;;;5073930;28;20021;-72
2021/12/24 06:03:02;;;;;;;3.15;2.40;;;;;;;;;;5065848;28;20154;-73
2021/12/24 06:05:28;;;;;;;4.47;2.50;;;;;;;;;;5065670;28;20782;-72
2021/12/24 06:07:55;;;;;;;4.32;2.63;;;;;;;;;;5075622;28;20036;-73
2021/12/24 06:10:21;;;;;;;2.78;2.22;;;;;;;;;;5063488;28;20017;-72
2021/12/24 06:12:47;;;;;;;6.90;2.13;;;;;;;;;;5065621;28;20028;-73
2021/12/24 06:15:16;;;;;;;2.45;1.65;;;;;;;;;;5074855;28;20028;-73
2021/12/24 06:17:42;;;;;;;4.18;1.90;;;;;;;;;;5068588;28;20040;-72
2021/12/24 06:20:10;;;;;;;3.30;1.92;;;;;;;;;;5070999;28;20471;-72
2021/12/24 06:22:37;;;;;;;6.60;2.13;;;;;;;;;;5072441;28;20025;-73
2021/12/24 06:25:03;;;;;;;2.53;1.85;;;;;;;;;;5068660;28;20023;-72
2021/12/24 06:27:30;;;;;;;4.53;2.30;;;;;;;;;;5069845;28;20060;-72
2021/12/24 06:29:56;;;;;;;5.75;1.98;;;;;;;;;;5070971;28;20037;-73
2021/12/24 06:32:22;;;;;;;5.95;2.00;;;;;;;;;;5065841;28;20023;-73
2021/12/24 06:34:49;;;;;;;4.03;2.03;;;;;;;;;;5065823;28;20111;-73
2021/12/24 06:37:16;;;;;;;3.45;2.58;;;;;;;;;;5066324;28;20054;-72
2021/12/24 06:39:42;;;;;;;3.35;1.83;;;;;;;;;;5066136;28;20035;-72
2021/12/24 06:42:09;;;;;;;3.42;2.10;;;;;;;;;;5070414;28;20521;-72
2021/12/24 06:44:35;;;;;;;3.65;1.90;;;;;;;;;;5073293;28;20040;-72
2021/12/24 06:47:01;;;;;;;2.33;1.77;;;;;;;;;;5070072;28;20052;-73
2021/12/24 06:49:28;;;;;;;3.22;2.08;;;;;;;;;;5064428;28;20020;-73
2021/12/24 06:51:54;;;;;;;2.85;2.20;;;;;;;;;;5066876;28;20080;-73
2021/12/24 06:54:20;;;;;;;16.95;12.00;;;;;;;;;;5087738;28;20043;-73
2021/12/24 06:56:46;;;;;;;16.02;10.43;;;;;;;;;;5082091;28;20036;-72
2021/12/24 06:59:13;;;;;;;17.48;13.15;;;;;;;;;;5073174;28;20553;-73
2021/12/24 07:01:39;;;;;;;9.95;7.07;;;;;;;;;;5069710;28;20051;-73
2021/12/24 07:04:05;;;;;;;8.38;5.32;;;;;;;;;;5080927;28;20034;-73
2021/12/24 07:06:31;;;;;;;6.38;3.90;;;;;;;;;;5074066;28;20055;-73
2021/12/24 07:08:57;;;;;;;5.47;3.50;;;;;;;;;;5076099;28;20058;-73
2021/12/24 07:11:24;;;;;;;3.50;2.90;;;;;;;;;;5065612;28;20036;-72
2021/12/24 07:13:51;;;;;;;4.25;2.63;;;;;;;;;;5070041;28;20029;-72
2021/12/24 07:16:17;;;;;;;2.88;2.30;;;;;;;;;;5086493;28;20047;-73
2021/12/24 07:18:43;;;;;;;3.85;2.30;;;;;;;;;;5068774;28;20032;-72
2021/12/24 07:21:09;;;;;;;4.03;2.20;;;;;;;;;;5076659;28;20039;-73
2021/12/24 07:23:35;;;;;;;6.13;2.97;;;;;;;;;;5072061;28;20396;-72
2021/12/24 07:26:02;;;;;;;8.60;4.65;;;;;;;;;;5065722;28;20029;-72
2021/12/24 07:28:28;;;;;;;7.75;5.20;;;;;;;;;;5064226;28;20030;-73
2021/12/24 07:30:55;;;;;;;10.60;6.25;;;;;;;;;;5071712;28;20055;-73
2021/12/24 07:33:21;;;;;;;9.57;7.20;;;;;;;;;;5060551;28;20040;-72
2021/12/24 07:35:47;;;;;;;11.13;9.93;;;;;;;;;;5070706;28;20027;-72
2021/12/24 07:38:14;;;;;;;20.10;17.00;;;;;;;;;;5067766;28;20040;-73
2021/12/24 07:40:41;;;;;;;19.60;17.55;;;;;;;;;;5067322;28;20039;-72
2021/12/24 07:43:07;;;;;;;12.38;8.73;;;;;;;;;;5072011;28;20090;-72
2021/12/24 07:45:33;;;;;;;12.13;6.25;;;;;;;;;;5081279;28;20176;-73
2021/12/24 07:48:16;;;;;;;6.45;4.60;;;;;;;;;;5065232;28;20039;-73
2021/12/24 07:53:13;;;;;;;3.88;3.15;;;;;;;;;;5061551;28;20037;-72
2021/12/24 07:55:40;;;;;;;3.90;3.03;;;;;;;;;;5066837;28;20669;-72
2021/12/24 07:58:07;;;;;;;4.90;2.83;;;;;;;;;;5062547;28;20099;-72
2021/12/24 08:00:34;;;;;;;6.07;4.15;;;;;;;;;;5062525;28;20050;-73
2021/12/24 08:03:03;;;;;;;6.57;4.53;;;;;;;;;;5068972;28;20040;-72
2021/12/24 08:05:31;;;;;;;8.60;5.88;;;;;;;;;;5065487;28;20036;-73
2021/12/24 08:07:58;;;;;;;9.65;6.00;;;;;;;;;;5072738;28;20059;-75
2021/12/24 08:10:25;;;;;;;10.23;6.55;;;;;;;;;;5072548;28;20093;-74
2021/12/24 08:12:51;;;;;;;7.75;6.95;;;;;;;;;;5067240;28;20054;-72
2021/12/24 08:15:18;;;;;;;9.20;7.35;;;;;;;;;;5062836;28;20050;-72
2021/12/24 08:17:45;;;;;;;12.15;8.27;;;;;;;;;;5062720;28;20032;-73
2021/12/24 08:20:12;;;;;;;12.05;7.97;;;;;;;;;;5064503;28;20028;-72
2021/12/24 08:22:38;;;;;;;10.02;7.03;;;;;;;;;;5062981;28;20036;-74
2021/12/24 08:25:06;;;;;;;10.43;8.55;;;;;;;;;;5067747;28;20024;-73
2021/12/24 08:27:33;;;;;;;13.52;9.05;;;;;;;;;;5060713;28;20048;-72
2021/12/24 08:29:59;;;;;;;13.32;8.80;;;;;;;;;;5063865;28;20039;-72
2021/12/24 08:32:25;;;;;;;10.63;9.05;;;;;;;;;;5065296;28;20804;-72
2021/12/24 08:34:53;;;;;;;13.70;9.43;;;;;;;;;;5064020;28;20123;-72
2021/12/24 08:37:19;;;;;;;14.25;8.85;;;;;;;;;;5062808;28;20032;-71
2021/12/24 08:39:45;;;;;;;13.50;9.00;;;;;;;;;;5069842;28;20026;-71
2021/12/24 08:42:11;;;;;;;13.98;9.95;;;;;;;;;;5078067;28;20033;-71
2021/12/24 08:44:38;;;;;;;12.75;8.85;;;;;;;;;;5061491;28;20097;-72
2021/12/24 08:47:05;;;;;;;11.55;8.82;;;;;;;;;;5065781;28;20028;-71
2021/12/24 08:49:32;;;;;;;15.38;9.70;;;;;;;;;;5064107;28;20033;-72
2021/12/24 08:51:59;;;;;;;12.60;8.15;;;;;;;;;;5064173;28;20024;-71
2021/12/24 08:54:25;;;;;;;14.75;8.68;;;;;;;;;;5066656;28;20223;-71
2021/12/24 08:56:55;;;;;;;10.93;8.73;;;;;;;;;;5078478;28;20063;-71
2021/12/24 08:59:23;;;;;;;11.60;8.48;;;;;;;;;;5067368;28;20024;-71
2021/12/24 09:01:49;;;;;;;12.20;8.77;;;;;;;;;;5060758;28;20031;-71
2021/12/24 09:04:15;;;;;;;15.98;9.05;;;;;;;;;;5071894;28;20024;-73
2021/12/24 09:06:42;;;;;;;11.80;8.23;;;;;;;;;;5070187;28;20442;-72
2021/12/24 09:09:10;;;;;;;15.05;9.70;;;;;;;;;;5073065;28;20020;-72
2021/12/24 09:11:37;;;;;;;16.00;11.65;;;;;;;;;;5066857;28;20836;-72
2021/12/24 09:14:03;;;;;;;15.27;10.77;;;;;;;;;;5070278;28;20545;-72
2021/12/24 09:16:30;;;;;;;20.75;9.57;;;;;;;;;;5073196;28;21006;-72
2021/12/24 09:19:03;;;;;;;13.43;9.60;;;;;;;;;;5071179;28;20035;-72
2021/12/24 09:21:29;;;;;;;14.38;9.98;;;;;;;;;;5066677;28;20021;-75
2021/12/24 09:23:57;;;;;;;12.27;10.07;;;;;;;;;;5070862;28;20111;-71
2021/12/24 09:26:28;;;;;;;19.45;11.68;;;;;;;;;;5068711;28;20397;-70
2021/12/24 09:28:55;;;;;;;12.70;9.13;;;;;;;;;;5069721;28;20031;-70
2021/12/24 09:31:21;;;;;;;12.55;10.00;;;;;;;;;;5074552;28;20036;-71
2021/12/24 09:33:47;;;;;;;14.27;9.45;;;;;;;;;;5071758;28;20094;-70
2021/12/24 09:36:14;;;;;;;11.25;9.30;;;;;;;;;;5074527;28;20039;-71
2021/12/24 09:38:40;;;;;;;10.27;7.90;;;;;;;;;;5072260;28;20028;-70
2021/12/24 09:41:06;;;;;;;13.68;8.43;;;;;;;;;;5065699;28;20043;-71
2021/12/24 09:43:32;;;;;;;12.05;7.95;;;;;;;;;;5069751;28;20067;-72
2021/12/24 09:45:59;;;;;;;11.27;8.25;;;;;;;;;;5070905;28;20440;-71
2021/12/24 09:48:25;;;;;;;12.35;8.77;;;;;;;;;;5072501;28;20024;-76
2021/12/24 09:50:51;;;;;;;10.07;6.85;;;;;;;;;;5069945;28;20119;-71
2021/12/24 09:53:17;;;;;;;11.25;7.53;;;;;;;;;;5073004;28;20500;-72
2021/12/24 09:55:44;;;;;;;10.00;7.63;;;;;;;;;;5066001;28;20519;-72
2021/12/24 09:58:10;;;;;;;11.05;8.88;;;;;;;;;;5069776;28;20031;-70
2021/12/24 10:00:36;;;;;;;16.33;8.73;;;;;;;;;;5071001;28;20031;-71
2021/12/24 10:03:02;;;;;;;12.32;8.00;;;;;;;;;;5065934;28;20063;-72
2021/12/24 10:05:33;;;;;;;8.60;6.80;;;;;;;;;;5068225;28;20020;-72
2021/12/24 10:08:01;;;;;;;12.57;8.48;;;;;;;;;;5069768;28;20028;-72
2021/12/24 10:10:30;;;;;;;9.98;7.35;;;;;;;;;;5067774;28;20070;-72
2021/12/24 10:12:58;;;;;;;10.20;8.15;;;;;;;;;;5072277;28;20063;-72
2021/12/24 10:15:24;;;;;;;8.27;6.70;;;;;;;;;;5067040;28;20035;-73
2021/12/24 10:17:50;;;;;;;9.80;6.20;;;;;;;;;;5070593;28;20038;-72
2021/12/24 10:20:20;;;;;;;10.38;5.72;;;;;;;;;;5072261;28;20027;-73
2021/12/24 10:22:51;;;;;;;11.43;6.20;;;;;;;;;;5065939;28;20483;-72
2021/12/24 10:25:23;;;;;;;8.85;5.13;;;;;;;;;;5069015;28;20034;-72
2021/12/24 10:27:50;;;;;;;8.77;4.57;;;;;;;;;;5077424;28;20396;-72
2021/12/24 10:30:16;;;;;;;10.10;4.70;;;;;;;;;;5067913;28;20020;-72
2021/12/24 10:32:42;;;;;;;9.65;4.63;;;;;;;;;;5064805;28;20107;-73
2021/12/24 10:35:25;;;;;;;7.75;4.03;;;;;;;;;;5074890;28;20028;-72
2021/12/24 10:38:10;;;;;;;9.82;5.05;;;;;;;;;;5074214;28;20127;-72
2021/12/24 10:40:36;;;;;;;5.88;4.55;;;;;;;;;;5061496;28;20044;-71
2021/12/24 10:43:03;;;;;;;10.52;5.57;;;;;;;;;;5063686;28;20074;-72
2021/12/24 10:45:29;;;;;;;6.13;4.72;;;;;;;;;;5071240;28;20032;-71
2021/12/24 10:47:56;;;;;;;6.82;4.43;;;;;;;;;;5065169;28;20064;-71
2021/12/24 10:55:23;;;;;;;6.80;4.68;;;;;;;;;;5070438;28;20050;-72
2021/12/24 10:57:53;;;;;;;6.22;4.57;;;;;;;;;;5073179;28;20035;-71
2021/12/24 11:00:22;;;;;;;6.43;4.05;;;;;;;;;;5067493;28;20033;-71
2021/12/24 11:02:53;;;;;;;7.63;4.18;;;;;;;;;;5068589;28;20032;-72
2021/12/24 11:05:27;;;;;;;7.20;3.50;;;;;;;;;;5064843;28;20066;-72
2021/12/24 11:07:53;;;;;;;8.90;4.30;;;;;;;;;;5066058;28;20849;-72
2021/12/24 11:10:24;;;;;;;8.85;5.35;;;;;;;;;;5073136;28;20116;-77
2021/12/24 11:12:54;;;;;;;8.02;5.25;;;;;;;;;;5067952;28;20553;-72
2021/12/24 11:15:23;;;;;;;11.27;5.28;;;;;;;;;;5064846;28;20054;-72
2021/12/24 11:17:50;;;;;;;10.00;5.50;;;;;;;;;;5070972;28;20020;-72
2021/12/24 11:20:16;;;;;;;7.97;4.43;;;;;;;;;;5070282;28;20085;-72
2021/12/24 11:23:09;;;;;;;6.70;4.25;;;;;;;;;;5068158;28;20112;-72
2021/12/24 11:25:37;;;;;;;6.55;4.57;;;;;;;;;;5066618;28;20687;-72
2021/12/24 11:28:04;;;;;;;6.75;4.25;;;;;;;;;;5068334;28;20477;-72
2021/12/24 11:30:31;;;;;;;5.13;3.35;;;;;;;;;;5065239;28;20031;-73
2021/12/24 11:32:57;;;;;;;5.40;3.47;;;;;;;;;;5063384;28;20103;-71
2021/12/24 11:35:24;;;;;;;8.45;4.70;;;;;;;;;;5071509;28;20094;-71
2021/12/24 11:37:52;;;;;;;6.63;4.53;;;;;;;;;;5069434;28;20044;-71
2021/12/24 11:40:19;;;;;;;8.57;4.53;;;;;;;;;;5065190;28;20039;-72
2021/12/24 11:42:50;;;;;;;7.95;4.13;;;;;;;;;;5070578;28;20051;-72
2021/12/24 11:45:16;;;;;;;4.80;3.70;;;;;;;;;;5067763;28;20048;-71
2021/12/24 11:47:42;;;;;;;5.00;3.38;;;;;;;;;;5069788;28;20086;-72
2021/12/24 11:50:09;;;;;;;5.50;4.07;;;;;;;;;;5064003;28;20059;-72
2021/12/24 11:52:35;;;;;;;7.60;4.07;;;;;;;;;;5070904;28;20358;-71
2021/12/24 11:55:02;;;;;;;5.88;3.63;;;;;;;;;;5076399;28;20330;-73
2021/12/24 11:57:28;;;;;;;4.28;3.17;;;;;;;;;;5073887;28;20036;-72
2021/12/24 11:59:54;;;;;;;4.18;3.05;;;;;;;;;;5068013;28;20028;-71
2021/12/24 12:02:41;;;;;;;6.55;3.33;;;;;;;;;;5078225;28;20426;-72
2021/12/24 12:05:11;;;;;;;4.22;2.85;;;;;;;;;;5071480;28;20036;-74
2021/12/24 12:07:37;;;;;;;4.47;2.95;;;;;;;;;;5065894;28;20108;-72
2021/12/24 12:10:04;;;;;;;7.22;3.33;;;;;;;;;;5076104;28;20159;-72
2021/12/24 12:12:34;;;;;;;4.65;2.83;;;;;;;;;;5075426;28;20027;-72
2021/12/24 12:15:19;;;;;;;3.90;2.63;;;;;;;;;;5070467;28;20039;-72
2021/12/24 12:17:52;;;;;;;3.88;2.95;;;;;;;;;;5063886;28;20154;-72
2021/12/24 12:20:45;;;;;;;4.05;2.95;;;;;;;;;;5068701;28;20013;-71
2021/12/24 12:23:31;;;;;;;4.03;2.72;;;;;;;;;;5066250;28;20020;-71
2021/12/24 12:25:59;;;;;;;4.07;2.45;;;;;;;;;;5067176;28;20024;-70
2021/12/24 12:28:26;;;;;;;3.45;2.08;;;;;;;;;;5072481;28;21748;-70
2021/12/24 12:30:54;;;;;;;3.10;2.38;;;;;;;;;;5071448;28;20128;-72
2021/12/24 12:33:42;;;;;;;3.05;2.38;;;;;;;;;;5068002;28;20440;-72
2021/12/24 12:36:08;;;;;;;3.97;2.20;;;;;;;;;;5065822;28;20048;-71
2021/12/24 12:38:39;;;;;;;3.05;2.13;;;;;;;;;;5067823;28;20097;-76
2021/12/24 12:41:24;;;;;;;3.17;2.00;;;;;;;;;;5064835;28;20040;-72
2021/12/24 12:43:51;;;;;;;3.10;2.42;;;;;;;;;;5061561;28;20024;-71
2021/12/24 12:46:21;;;;;;;4.45;2.85;;;;;;;;;;5064403;28;20492;-71
2021/12/24 12:48:49;;;;;;;3.90;2.60;;;;;;;;;;5063307;28;20465;-71
2021/12/24 12:51:16;;;;;;;6.85;2.70;;;;;;;;;;5063116;28;20029;-72
2021/12/24 12:53:42;;;;;;;5.63;2.70;;;;;;;;;;5065106;28;20080;-73
2021/12/24 12:56:08;;;;;;;6.25;2.95;;;;;;;;;;5070575;28;20099;-72
2021/12/24 12:58:34;;;;;;;3.78;2.67;;;;;;;;;;5070697;28;20074;-72
2021/12/24 13:01:04;;;;;;;3.22;2.40;;;;;;;;;;5074323;28;20024;-73
2021/12/24 13:03:30;;;;;;;7.65;3.22;;;;;;;;;;5059078;28;20038;-72
2021/12/24 13:06:00;;;;;;;4.43;2.42;;;;;;;;;;5081126;28;20023;-72
2021/12/24 13:08:28;;;;;;;5.45;2.53;;;;;;;;;;5063057;28;20028;-72
2021/12/24 13:10:55;;;;;;;4.68;2.67;;;;;;;;;;5066361;28;20024;-71
2021/12/24 13:13:22;;;;;;;4.15;2.75;;;;;;;;;;5074595;28;20466;-72
2021/12/24 13:15:48;;;;;;;3.53;2.38;;;;;;;;;;5065749;28;20035;-72
2021/12/24 13:18:25;;;;;;;4.63;3.08;;;;;;;;;;5063788;28;20016;-72
2021/12/24 13:23:34;;;;;;;4.03;3.00;;;;;;;;;;5060512;28;20111;-71
2021/12/24 13:26:16;;;;;;;5.15;3.17;;;;;;;;;;5063133;28;20073;-71
2021/12/24 13:28:57;;;;;;;4.18;3.13;;;;;;;;;;5061507;28;20062;-71
2021/12/24 13:31:23;;;;;;;6.93;3.30;;;;;;;;;;5069107;28;20032;-72
2021/12/24 13:33:49;;;;;;;6.47;3.08;;;;;;;;;;5060111;28;20489;-72
2021/12/24 13:36:20;;;;;;;5.15;3.08;;;;;;;;;;5066060;28;20040;-72
2021/12/24 13:38:46;;;;;;;3.15;2.55;;;;;;;;;;5062151;28;20028;-72
2021/12/24 13:41:12;;;;;;;3.92;3.20;;;;;;;;;;5065144;28;20529;-73
2021/12/24 13:43:39;;;;;;;3.65;2.80;;;;;;;;;;5064294;28;20064;-71
2021/12/24 13:46:06;;;;;;;5.88;3.15;;;;;;;;;;5065557;28;20524;-72
2021/12/24 13:48:45;;;;;;;4.55;3.00;;;;;;;;;;5066118;28;20032;-73
2021/12/24 13:56:40;;;;;;;4.78;3.28;;;;;;;;;;5065355;28;20051;-71
2021/12/24 13:59:07;;;;;;;7.28;3.72;;;;;;;;;;5066506;28;20153;-73
2021/12/24 14:01:33;;;;;;;3.97;3.03;;;;;;;;;;5077697;28;20056;-71
2021/12/24 14:04:00;;;;;;;8.07;3.25;;;;;;;;;;5065085;28;20020;-71
2021/12/24 14:06:33;;;;;;;6.82;3.47;;;;;;;;;;5066141;28;20201;-71
2021/12/24 14:09:09;;;;;;;5.40;3.20;;;;;;;;;;5067117;28;20029;-72
2021/12/24 14:11:36;;;;;;;4.97;3.00;;;;;;;;;;5070993;28;20039;-70
2021/12/24 14:14:08;;;;;;;6.05;3.40;;;;;;;;;;5063706;28;20085;-71
2021/12/24 14:16:59;;;;;;;10.65;3.85;;;;;;;;;;5073586;28;20032;-72
2021/12/24 14:19:35;;;;;;;6.50;3.53;;;;;;;;;;5067843;28;20115;-71
2021/12/24 14:22:09;;;;;;;6.13;3.03;;;;;;;;;;5073818;28;20028;-73
2021/12/24 14:24:36;;;;;;;5.13;2.88;;;;;;;;;;5071765;28;20035;-71
2021/12/24 14:27:14;;;;;;;8.95;3.55;;;;;;;;;;5071263;28;20585;-70
2021/12/24 14:29:41;;;;;;;6.63;3.55;;;;;;;;;;5076509;28;20024;-72
2021/12/24 14:32:12;;;;;;;6.10;3.22;;;;;;;;;;5070468;28;20100;-74
2021/12/24 14:34:39;;;;;;;5.85;3.40;;;;;;;;;;5070494;28;20031;-73
2021/12/24 14:37:07;;;;;;;4.57;3.40;;;;;;;;;;5066409;28;20484;-73
2021/12/24 14:39:34;;;;;;;8.60;3.30;;;;;;;;;;5073954;28;20557;-75
2021/12/24 14:42:14;;;;;;;7.07;3.28;;;;;;;;;;5070645;28;20028;-73
2021/12/24 14:44:40;;;;;;;4.18;3.00;;;;;;;;;;5067767;28;20043;-75
2021/12/24 14:47:07;;;;;;;6.60;3.45;;;;;;;;;;5065703;28;20338;-74
2021/12/24 14:49:34;;;;;;;4.80;3.47;;;;;;;;;;5074962;28;20228;-74
2021/12/24 14:52:19;;;;;;;5.03;2.80;;;;;;;;;;5067574;28;20068;-74
2021/12/24 14:55:04;;;;;;;5.60;3.03;;;;;;;;;;5067298;28;20024;-74
2021/12/24 14:57:32;;;;;;;4.85;2.83;;;;;;;;;;5066905;28;20926;-74
2021/12/24 15:00:04;;;;;;;5.70;2.97;;;;;;;;;;5073698;28;20020;-74
2021/12/24 15:02:30;;;;;;;4.03;3.28;;;;;;;;;;5067815;28;20028;-73
2021/12/24 15:04:57;;;;;;;5.68;3.00;;;;;;;;;;5074614;28;20024;-73
2021/12/24 15:07:32;;;;;;;4.60;3.33;;;;;;;;;;5069521;28;20404;-74
2021/12/24 15:10:11;;;;;;;4.30;3.20;;;;;;;;;;5076726;28;20815;-75
2021/12/24 15:12:59;;;;;;;3.92;2.85;;;;;;;;;;5071288;28;20043;-73
2021/12/24 15:15:26;;;;;;;5.72;2.72;;;;;;;;;;5069145;28;20039;-74
2021/12/24 15:17:52;;;;;;;5.30;3.05;;;;;;;;;;5074233;28;20036;-73
2021/12/24 15:20:20;;;;;;;5.15;2.60;;;;;;;;;;5071893;28;20021;-74
2021/12/24 15:22:46;;;;;;;3.70;2.63;;;;;;;;;;5069143;28;20034;-74
2021/12/24 15:25:13;;;;;;;7.28;3.67;;;;;;;;;;5071637;28;20028;-75
2021/12/24 15:27:40;;;;;;;4.40;3.00;;;;;;;;;;5066920;28;20027;-73
2021/12/24 15:30:07;;;;;;;5.63;3.08;;;;;;;;;;5071188;28;20024;-74
2021/12/24 15:32:34;;;;;;;8.20;3.22;;;;;;;;;;5068701;28;20033;-74
2021/12/24 15:35:00;;;;;;;5.63;2.75;;;;;;;;;;5075346;28;20023;-73
2021/12/24 15:37:26;;;;;;;9.43;3.35;;;;;;;;;;5076380;28;20752;-73
2021/12/24 15:39:52;;;;;;;6.05;3.13;;;;;;;;;;5070248;28;20028;-73
2021/12/24 15:42:19;;;;;;;7.72;3.00;;;;;;;;;;5064418;28;20115;-73
2021/12/24 15:44:48;;;;;;;5.28;2.80;;;;;;;;;;5065130;28;20133;-73
2021/12/24 15:47:15;;;;;;;5.50;2.63;;;;;;;;;;5068723;28;21566;-75
2021/12/24 15:49:41;;;;;;;4.70;2.60;;;;;;;;;;5074104;28;20492;-73
2021/12/24 15:52:08;;;;;;;11.82;4.07;;;;;;;;;;5068840;28;20028;-73
2021/12/24 15:54:34;;;;;;;34.38;17.58;;;;;;;;;;5074655;28;20555;-74
2021/12/24 15:57:01;;;;;;;4.65;2.85;;;;;;;;;;5066520;28;20043;-73
2021/12/24 15:59:31;;;;;;;8.45;2.75;;;;;;;;;;5072448;28;20035;-73
2021/12/24 16:01:58;;;;;;;5.20;2.70;;;;;;;;;;5072262;28;20035;-73
2021/12/24 16:04:24;;;;;;;4.03;2.50;;;;;;;;;;5068837;28;20021;-74
2021/12/24 16:06:51;;;;;;;23.33;4.35;;;;;;;;;;5069514;28;20020;-73
2021/12/24 16:09:20;;;;;;;5.75;3.22;;;;;;;;;;5061208;28;20047;-73
2021/12/24 16:11:47;;;;;;;4.40;3.15;;;;;;;;;;5068969;28;20024;-74
2021/12/24 16:14:13;;;;;;;9.35;6.40;;;;;;;;;;5065398;28;20055;-74
2021/12/24 16:16:44;;;;;;;8.00;3.80;;;;;;;;;;5077594;28;20063;-73
2021/12/24 16:19:11;;;;;;;5.38;2.78;;;;;;;;;;5064589;28;20056;-77
2021/12/24 16:21:38;;;;;;;6.28;2.80;;;;;;;;;;5064897;28;20876;-73
2021/12/24 16:24:05;;;;;;;5.75;3.03;;;;;;;;;;5070153;28;20024;-74
2021/12/24 16:26:31;;;;;;;4.25;2.40;;;;;;;;;;5070373;28;20106;-75
2021/12/24 16:28:57;;;;;;;4.43;2.60;;;;;;;;;;5061790;28;20033;-76